Norrie, Colorado
Current Conditions -  °F | °C
As of 4:53 AM on Tuesday 21 Oct 2014 (Local Time) from KLXV Reporting Station
Clear Clear  
Wind Chill: 24°   Ceiling: Unl
Heat Index: 29°   Visibility: 10mi
Dew Point: 28°   Wind: 5mph
Humidity: 96%   Direction: 60°ENE
Pressure: 30.3"   Gusts: NA
Location:  39.3236°N, 106.55°W
Report Text: KLXV 211053Z AUTO 06004KT 10SM CLR M02/M02 A3030 RMK AO2 SLP151 T10171022
Loading
Personal Weather Stations






























Interactive Weather Map
Tropical Storm Tracking
New forecast layout! Learn more

10-Day Weather Forecast

Advertisements
Track Severe Weather on mobile